sensor_id;sensor_type;location;lat;lon;timestamp;P1;durP1;ratioP1;P2;durP2;ratioP2
54368;SDS011;40266;52.434;17.056;2022-12-13T00:01:18;16.50;;;6.90;;
54368;SDS011;40266;52.434;17.056;2022-12-13T00:04:04;15.10;;;7.20;;
54368;SDS011;40266;52.434;17.056;2022-12-13T00:06:48;13.00;;;6.20;;
54368;SDS011;40266;52.434;17.056;2022-12-13T00:09:32;16.70;;;7.20;;
54368;SDS011;40266;52.434;17.056;2022-12-13T00:14:57;15.40;;;7.10;;
54368;SDS011;40266;52.434;17.056;2022-12-13T00:17:40;16.80;;;7.40;;
54368;SDS011;40266;52.434;17.056;2022-12-13T00:23:06;16.90;;;7.60;;
54368;SDS011;40266;52.434;17.056;2022-12-13T00:25:49;18.40;;;7.80;;
54368;SDS011;40266;52.434;17.056;2022-12-13T00:28:33;18.60;;;8.30;;
54368;SDS011;40266;52.434;17.056;2022-12-13T00:31:18;15.00;;;6.90;;
54368;SDS011;40266;52.434;17.056;2022-12-13T00:34:23;18.90;;;8.20;;
54368;SDS011;40266;52.434;17.056;2022-12-13T00:37:06;17.50;;;8.70;;
54368;SDS011;40266;52.434;17.056;2022-12-13T00:39:50;14.70;;;7.40;;
54368;SDS011;40266;52.434;17.056;2022-12-13T00:42:33;13.90;;;7.40;;
54368;SDS011;40266;52.434;17.056;2022-12-13T00:45:16;17.30;;;7.40;;
54368;SDS011;40266;52.434;17.056;2022-12-13T00:50:42;15.40;;;6.90;;
54368;SDS011;40266;52.434;17.056;2022-12-13T00:53:24;14.40;;;7.30;;
54368;SDS011;40266;52.434;17.056;2022-12-13T00:56:09;18.60;;;7.40;;
54368;SDS011;40266;52.434;17.056;2022-12-13T00:58:57;18.10;;;7.60;;
54368;SDS011;40266;52.434;17.056;2022-12-13T01:01:41;14.70;;;6.70;;
54368;SDS011;40266;52.434;17.056;2022-12-13T01:04:25;16.40;;;8.40;;
54368;SDS011;40266;52.434;17.056;2022-12-13T01:09:50;14.80;;;6.70;;
54368;SDS011;40266;52.434;17.056;2022-12-13T01:12:34;15.80;;;7.10;;
54368;SDS011;40266;52.434;17.056;2022-12-13T01:15:17;15.10;;;6.70;;
54368;SDS011;40266;52.434;17.056;2022-12-13T01:18:00;14.40;;;6.70;;
54368;SDS011;40266;52.434;17.056;2022-12-13T01:23:39;15.00;;;6.40;;
54368;SDS011;40266;52.434;17.056;2022-12-13T01:26:22;17.40;;;7.40;;
54368;SDS011;40266;52.434;17.056;2022-12-13T01:31:48;15.70;;;6.70;;
54368;SDS011;40266;52.434;17.056;2022-12-13T01:34:31;16.60;;;8.00;;
54368;SDS011;40266;52.434;17.056;2022-12-13T01:37:15;14.30;;;6.50;;
54368;SDS011;40266;52.434;17.056;2022-12-13T01:39:59;15.70;;;6.70;;
54368;SDS011;40266;52.434;17.056;2022-12-13T01:42:41;16.00;;;8.20;;
54368;SDS011;40266;52.434;17.056;2022-12-13T01:45:25;16.60;;;7.20;;
54368;SDS011;40266;52.434;17.056;2022-12-13T01:48:13;13.60;;;6.00;;
54368;SDS011;40266;52.434;17.056;2022-12-13T01:51:02;14.90;;;6.40;;
54368;SDS011;40266;52.434;17.056;2022-12-13T01:53:48;13.90;;;5.80;;
54368;SDS011;40266;52.434;17.056;2022-12-13T01:56:37;15.60;;;6.50;;
54368;SDS011;40266;52.434;17.056;2022-12-13T01:59:29;12.60;;;6.10;;
54368;SDS011;40266;52.434;17.056;2022-12-13T02:02:14;13.20;;;6.00;;
54368;SDS011;40266;52.434;17.056;2022-12-13T02:05:06;10.90;;;5.80;;
54368;SDS011;40266;52.434;17.056;2022-12-13T02:07:53;13.60;;;6.00;;
54368;SDS011;40266;52.434;17.056;2022-12-13T02:10:40;14.70;;;6.60;;
54368;SDS011;40266;52.434;17.056;2022-12-13T02:13:24;13.70;;;6.80;;
54368;SDS011;40266;52.434;17.056;2022-12-13T02:24:56;14.40;;;6.10;;
54368;SDS011;40266;52.434;17.056;2022-12-13T02:31:14;12.50;;;5.90;;
54368;SDS011;40266;52.434;17.056;2022-12-13T02:34:05;11.40;;;5.60;;
54368;SDS011;40266;52.434;17.056;2022-12-13T02:37:07;13.30;;;7.30;;
54368;SDS011;40266;52.434;17.056;2022-12-13T02:40:02;10.60;;;5.20;;
54368;SDS011;40266;52.434;17.056;2022-12-13T02:45:46;15.00;;;6.40;;
54368;SDS011;40266;52.434;17.056;2022-12-13T02:48:33;14.00;;;6.40;;
54368;SDS011;40266;52.434;17.056;2022-12-13T02:51:20;12.20;;;6.10;;
54368;SDS011;40266;52.434;17.056;2022-12-13T02:54:05;17.60;;;6.80;;
54368;SDS011;40266;52.434;17.056;2022-12-13T02:56:57;12.70;;;5.60;;
54368;SDS011;40266;52.434;17.056;2022-12-13T02:59:41;13.40;;;6.50;;
54368;SDS011;40266;52.434;17.056;2022-12-13T03:05:46;12.40;;;6.30;;
54368;SDS011;40266;52.434;17.056;2022-12-13T03:12:28;9.90;;;5.00;;
54368;SDS011;40266;52.434;17.056;2022-12-13T03:15:42;14.00;;;6.00;;
54368;SDS011;40266;52.434;17.056;2022-12-13T03:18:47;12.80;;;6.00;;
54368;SDS011;40266;52.434;17.056;2022-12-13T03:21:40;13.90;;;6.10;;
54368;SDS011;40266;52.434;17.056;2022-12-13T03:24:29;15.50;;;7.40;;
54368;SDS011;40266;52.434;17.056;2022-12-13T03:29:55;13.30;;;6.40;;
54368;SDS011;40266;52.434;17.056;2022-12-13T03:32:39;12.70;;;5.70;;
54368;SDS011;40266;52.434;17.056;2022-12-13T03:38:05;12.20;;;5.20;;
54368;SDS011;40266;52.434;17.056;2022-12-13T03:40:50;14.10;;;5.70;;
54368;SDS011;40266;52.434;17.056;2022-12-13T03:43:35;12.50;;;5.70;;
54368;SDS011;40266;52.434;17.056;2022-12-13T03:46:18;12.00;;;5.80;;
54368;SDS011;40266;52.434;17.056;2022-12-13T03:49:02;9.50;;;5.10;;
54368;SDS011;40266;52.434;17.056;2022-12-13T03:51:45;11.10;;;5.20;;
54368;SDS011;40266;52.434;17.056;2022-12-13T03:54:28;10.50;;;5.00;;
54368;SDS011;40266;52.434;17.056;2022-12-13T03:57:11;10.00;;;5.40;;
54368;SDS011;40266;52.434;17.056;2022-12-13T03:59:57;11.40;;;5.30;;
54368;SDS011;40266;52.434;17.056;2022-12-13T04:05:24;11.30;;;5.80;;
54368;SDS011;40266;52.434;17.056;2022-12-13T04:08:07;11.20;;;5.10;;
54368;SDS011;40266;52.434;17.056;2022-12-13T04:11:04;14.30;;;6.00;;
54368;SDS011;40266;52.434;17.056;2022-12-13T04:14:07;11.60;;;5.20;;
54368;SDS011;40266;52.434;17.056;2022-12-13T04:19:34;12.30;;;5.20;;
54368;SDS011;40266;52.434;17.056;2022-12-13T04:25:06;10.70;;;5.30;;
54368;SDS011;40266;52.434;17.056;2022-12-13T04:27:49;9.40;;;4.80;;
54368;SDS011;40266;52.434;17.056;2022-12-13T04:30:33;9.70;;;5.50;;
54368;SDS011;40266;52.434;17.056;2022-12-13T04:33:16;10.10;;;5.30;;
54368;SDS011;40266;52.434;17.056;2022-12-13T04:38:43;11.80;;;5.40;;
54368;SDS011;40266;52.434;17.056;2022-12-13T04:41:27;15.90;;;5.40;;
54368;SDS011;40266;52.434;17.056;2022-12-13T04:44:16;13.30;;;5.30;;
54368;SDS011;40266;52.434;17.056;2022-12-13T04:47:10;13.60;;;5.80;;
54368;SDS011;40266;52.434;17.056;2022-12-13T04:49:53;16.00;;;6.40;;
54368;SDS011;40266;52.434;17.056;2022-12-13T04:52:36;11.90;;;5.00;;
54368;SDS011;40266;52.434;17.056;2022-12-13T04:55:21;15.60;;;6.20;;
54368;SDS011;40266;52.434;17.056;2022-12-13T04:58:03;14.40;;;5.60;;
54368;SDS011;40266;52.434;17.056;2022-12-13T05:00:47;14.00;;;5.80;;
54368;SDS011;40266;52.434;17.056;2022-12-13T05:03:30;11.40;;;6.10;;
54368;SDS011;40266;52.434;17.056;2022-12-13T05:09:08;11.70;;;5.80;;
54368;SDS011;40266;52.434;17.056;2022-12-13T05:11:53;13.10;;;5.80;;
54368;SDS011;40266;52.434;17.056;2022-12-13T05:14:42;12.20;;;5.80;;
54368;SDS011;40266;52.434;17.056;2022-12-13T05:20:08;10.60;;;5.50;;
54368;SDS011;40266;52.434;17.056;2022-12-13T05:22:53;14.40;;;6.10;;
54368;SDS011;40266;52.434;17.056;2022-12-13T05:25:38;13.70;;;5.90;;
54368;SDS011;40266;52.434;17.056;2022-12-13T05:28:21;15.70;;;5.80;;
54368;SDS011;40266;52.434;17.056;2022-12-13T05:31:10;17.10;;;6.70;;
54368;SDS011;40266;52.434;17.056;2022-12-13T05:34:05;16.40;;;6.60;;
54368;SDS011;40266;52.434;17.056;2022-12-13T05:39:30;14.90;;;5.90;;
54368;SDS011;40266;52.434;17.056;2022-12-13T05:42:13;11.40;;;5.80;;
54368;SDS011;40266;52.434;17.056;2022-12-13T05:44:56;16.40;;;8.00;;
54368;SDS011;40266;52.434;17.056;2022-12-13T05:47:39;21.40;;;6.80;;
54368;SDS011;40266;52.434;17.056;2022-12-13T05:50:22;12.90;;;6.30;;
54368;SDS011;40266;52.434;17.056;2022-12-13T05:53:05;16.50;;;6.50;;
54368;SDS011;40266;52.434;17.056;2022-12-13T05:55:48;15.00;;;6.60;;
54368;SDS011;40266;52.434;17.056;2022-12-13T06:01:17;13.40;;;6.00;;
54368;SDS011;40266;52.434;17.056;2022-12-13T06:04:00;11.40;;;5.60;;
54368;SDS011;40266;52.434;17.056;2022-12-13T06:06:43;11.50;;;5.60;;
54368;SDS011;40266;52.434;17.056;2022-12-13T06:09:26;13.40;;;5.80;;
54368;SDS011;40266;52.434;17.056;2022-12-13T06:12:10;11.30;;;5.70;;
54368;SDS011;40266;52.434;17.056;2022-12-13T06:15:13;14.60;;;6.20;;
54368;SDS011;40266;52.434;17.056;2022-12-13T06:18:04;16.00;;;6.60;;
54368;SDS011;40266;52.434;17.056;2022-12-13T06:21:00;11.40;;;5.90;;
54368;SDS011;40266;52.434;17.056;2022-12-13T06:23:45;16.10;;;6.10;;
54368;SDS011;40266;52.434;17.056;2022-12-13T06:26:28;12.50;;;5.30;;
54368;SDS011;40266;52.434;17.056;2022-12-13T06:32:06;11.70;;;5.60;;
54368;SDS011;40266;52.434;17.056;2022-12-13T06:34:49;15.00;;;6.70;;
54368;SDS011;40266;52.434;17.056;2022-12-13T06:37:32;16.80;;;6.60;;
54368;SDS011;40266;52.434;17.056;2022-12-13T06:40:14;12.10;;;6.10;;
54368;SDS011;40266;52.434;17.056;2022-12-13T06:43:08;19.60;;;6.10;;
54368;SDS011;40266;52.434;17.056;2022-12-13T06:45:51;16.40;;;6.50;;
54368;SDS011;40266;52.434;17.056;2022-12-13T06:51:17;15.70;;;6.50;;
54368;SDS011;40266;52.434;17.056;2022-12-13T06:54:05;21.70;;;6.50;;
54368;SDS011;40266;52.434;17.056;2022-12-13T06:59:31;12.80;;;5.50;;
54368;SDS011;40266;52.434;17.056;2022-12-13T07:05:09;13.30;;;5.50;;
54368;SDS011;40266;52.434;17.056;2022-12-13T07:07:52;13.30;;;5.80;;
54368;SDS011;40266;52.434;17.056;2022-12-13T07:10:37;16.10;;;6.30;;
54368;SDS011;40266;52.434;17.056;2022-12-13T07:13:22;11.00;;;5.50;;
54368;SDS011;40266;52.434;17.056;2022-12-13T07:16:05;14.40;;;6.30;;
54368;SDS011;40266;52.434;17.056;2022-12-13T07:18:55;12.00;;;5.70;;
54368;SDS011;40266;52.434;17.056;2022-12-13T07:21:43;13.50;;;6.20;;
54368;SDS011;40266;52.434;17.056;2022-12-13T07:27:09;15.90;;;5.90;;
54368;SDS011;40266;52.434;17.056;2022-12-13T07:29:52;18.50;;;6.70;;
54368;SDS011;40266;52.434;17.056;2022-12-13T07:32:35;20.00;;;7.40;;
54368;SDS011;40266;52.434;17.056;2022-12-13T07:35:18;17.90;;;8.90;;
54368;SDS011;40266;52.434;17.056;2022-12-13T07:40:43;21.90;;;8.70;;
54368;SDS011;40266;52.434;17.056;2022-12-13T07:46:10;25.40;;;10.50;;
54368;SDS011;40266;52.434;17.056;2022-12-13T07:48:54;27.70;;;13.30;;
54368;SDS011;40266;52.434;17.056;2022-12-13T07:51:43;15.10;;;7.40;;
54368;SDS011;40266;52.434;17.056;2022-12-13T07:54:25;24.90;;;10.60;;
54368;SDS011;40266;52.434;17.056;2022-12-13T07:57:09;17.80;;;8.80;;
54368;SDS011;40266;52.434;17.056;2022-12-13T07:59:52;19.90;;;8.30;;
54368;SDS011;40266;52.434;17.056;2022-12-13T08:02:35;15.20;;;8.20;;
54368;SDS011;40266;52.434;17.056;2022-12-13T08:05:18;16.00;;;7.50;;
54368;SDS011;40266;52.434;17.056;2022-12-13T08:08:09;12.00;;;5.30;;
54368;SDS011;40266;52.434;17.056;2022-12-13T08:10:53;14.20;;;5.80;;
54368;SDS011;40266;52.434;17.056;2022-12-13T08:13:44;15.60;;;5.80;;
54368;SDS011;40266;52.434;17.056;2022-12-13T08:16:26;17.90;;;5.80;;
54368;SDS011;40266;52.434;17.056;2022-12-13T08:19:11;11.00;;;5.00;;
54368;SDS011;40266;52.434;17.056;2022-12-13T08:21:54;12.20;;;5.20;;
54368;SDS011;40266;52.434;17.056;2022-12-13T08:24:43;15.20;;;6.60;;
54368;SDS011;40266;52.434;17.056;2022-12-13T08:30:09;15.50;;;5.30;;
54368;SDS011;40266;52.434;17.056;2022-12-13T08:32:52;12.30;;;5.60;;
54368;SDS011;40266;52.434;17.056;2022-12-13T08:35:35;12.10;;;6.10;;
54368;SDS011;40266;52.434;17.056;2022-12-13T08:41:05;16.20;;;6.10;;
54368;SDS011;40266;52.434;17.056;2022-12-13T08:43:49;12.20;;;5.70;;
54368;SDS011;40266;52.434;17.056;2022-12-13T08:46:32;11.40;;;5.90;;
54368;SDS011;40266;52.434;17.056;2022-12-13T08:49:15;15.00;;;8.20;;
54368;SDS011;40266;52.434;17.056;2022-12-13T08:51:58;14.50;;;7.30;;
54368;SDS011;40266;52.434;17.056;2022-12-13T08:54:42;11.90;;;6.40;;
54368;SDS011;40266;52.434;17.056;2022-12-13T08:57:26;12.40;;;5.80;;
54368;SDS011;40266;52.434;17.056;2022-12-13T09:02:55;13.30;;;6.20;;
54368;SDS011;40266;52.434;17.056;2022-12-13T09:05:39;20.20;;;8.80;;
54368;SDS011;40266;52.434;17.056;2022-12-13T09:08:23;17.20;;;8.60;;
54368;SDS011;40266;52.434;17.056;2022-12-13T09:11:16;33.00;;;18.00;;
54368;SDS011;40266;52.434;17.056;2022-12-13T09:14:14;31.10;;;16.40;;
54368;SDS011;40266;52.434;17.056;2022-12-13T09:17:05;38.10;;;20.90;;
54368;SDS011;40266;52.434;17.056;2022-12-13T09:19:58;50.10;;;20.30;;
54368;SDS011;40266;52.434;17.056;2022-12-13T09:22:41;23.30;;;10.80;;
54368;SDS011;40266;52.434;17.056;2022-12-13T09:25:26;23.60;;;12.30;;
54368;SDS011;40266;52.434;17.056;2022-12-13T09:28:20;28.90;;;15.10;;
54368;SDS011;40266;52.434;17.056;2022-12-13T09:31:07;19.50;;;9.90;;
54368;SDS011;40266;52.434;17.056;2022-12-13T09:33:50;13.60;;;6.60;;
54368;SDS011;40266;52.434;17.056;2022-12-13T09:39:16;14.10;;;6.90;;
54368;SDS011;40266;52.434;17.056;2022-12-13T09:41:59;15.00;;;8.00;;
54368;SDS011;40266;52.434;17.056;2022-12-13T09:44:53;12.40;;;6.50;;
54368;SDS011;40266;52.434;17.056;2022-12-13T09:47:46;16.30;;;7.40;;
54368;SDS011;40266;52.434;17.056;2022-12-13T09:50:31;16.70;;;6.80;;
54368;SDS011;40266;52.434;17.056;2022-12-13T09:53:20;16.90;;;7.00;;
54368;SDS011;40266;52.434;17.056;2022-12-13T09:56:03;17.10;;;9.20;;
54368;SDS011;40266;52.434;17.056;2022-12-13T09:58:53;22.40;;;10.30;;
54368;SDS011;40266;52.434;17.056;2022-12-13T10:01:38;24.80;;;12.40;;
54368;SDS011;40266;52.434;17.056;2022-12-13T10:04:22;15.00;;;7.90;;
54368;SDS011;40266;52.434;17.056;2022-12-13T10:07:13;23.00;;;13.90;;
54368;SDS011;40266;52.434;17.056;2022-12-13T10:10:00;22.30;;;11.20;;
54368;SDS011;40266;52.434;17.056;2022-12-13T10:12:43;19.30;;;10.00;;
54368;SDS011;40266;52.434;17.056;2022-12-13T10:15:30;24.90;;;14.80;;
54368;SDS011;40266;52.434;17.056;2022-12-13T10:18:20;21.20;;;11.30;;
54368;SDS011;40266;52.434;17.056;2022-12-13T10:21:19;24.10;;;14.00;;
54368;SDS011;40266;52.434;17.056;2022-12-13T10:25:11;18.90;;;10.80;;
54368;SDS011;40266;52.434;17.056;2022-12-13T10:27:45;15.50;;;8.30;;
54368;SDS011;40266;52.434;17.056;2022-12-13T10:30:29;19.80;;;9.50;;
54368;SDS011;40266;52.434;17.056;2022-12-13T10:33:28;20.20;;;9.50;;
54368;SDS011;40266;52.434;17.056;2022-12-13T10:36:14;17.70;;;9.40;;
54368;SDS011;40266;52.434;17.056;2022-12-13T10:39:18;17.40;;;7.90;;
54368;SDS011;40266;52.434;17.056;2022-12-13T10:42:20;16.90;;;10.00;;
54368;SDS011;40266;52.434;17.056;2022-12-13T10:45:14;17.40;;;9.20;;
54368;SDS011;40266;52.434;17.056;2022-12-13T10:48:10;14.30;;;7.70;;
54368;SDS011;40266;52.434;17.056;2022-12-13T10:51:02;17.20;;;7.50;;
54368;SDS011;40266;52.434;17.056;2022-12-13T10:53:49;17.10;;;7.40;;
54368;SDS011;40266;52.434;17.056;2022-12-13T10:56:46;20.70;;;9.30;;
54368;SDS011;40266;52.434;17.056;2022-12-13T10:59:35;17.60;;;7.80;;
54368;SDS011;40266;52.434;17.056;2022-12-13T11:05:22;20.90;;;11.20;;
54368;SDS011;40266;52.434;17.056;2022-12-13T11:08:20;17.10;;;8.90;;
54368;SDS011;40266;52.434;17.056;2022-12-13T11:11:05;28.50;;;14.90;;
54368;SDS011;40266;52.434;17.056;2022-12-13T11:13:52;23.90;;;13.50;;
54368;SDS011;40266;52.434;17.056;2022-12-13T11:16:38;15.00;;;7.50;;
54368;SDS011;40266;52.434;17.056;2022-12-13T11:19:24;16.10;;;6.80;;
54368;SDS011;40266;52.434;17.056;2022-12-13T11:22:24;13.10;;;5.80;;
54368;SDS011;40266;52.434;17.056;2022-12-13T11:25:22;11.90;;;5.40;;
54368;SDS011;40266;52.434;17.056;2022-12-13T11:37:46;13.40;;;5.70;;
54368;SDS011;40266;52.434;17.056;2022-12-13T11:40:39;15.40;;;6.30;;
54368;SDS011;40266;52.434;17.056;2022-12-13T11:43:42;14.70;;;6.10;;
54368;SDS011;40266;52.434;17.056;2022-12-13T11:46:37;16.70;;;6.20;;
54368;SDS011;40266;52.434;17.056;2022-12-13T11:52:24;14.90;;;6.90;;
54368;SDS011;40266;52.434;17.056;2022-12-13T11:55:13;13.90;;;6.50;;
54368;SDS011;40266;52.434;17.056;2022-12-13T11:58:15;15.00;;;6.10;;
54368;SDS011;40266;52.434;17.056;2022-12-13T12:01:41;18.20;;;7.10;;
54368;SDS011;40266;52.434;17.056;2022-12-13T12:04:34;16.30;;;7.70;;
54368;SDS011;40266;52.434;17.056;2022-12-13T12:07:37;21.10;;;8.20;;
54368;SDS011;40266;52.434;17.056;2022-12-13T12:10:45;20.50;;;8.00;;
54368;SDS011;40266;52.434;17.056;2022-12-13T12:13:51;19.00;;;8.70;;
54368;SDS011;40266;52.434;17.056;2022-12-13T12:19:36;22.90;;;11.70;;
54368;SDS011;40266;52.434;17.056;2022-12-13T12:34:59;17.40;;;7.40;;
54368;SDS011;40266;52.434;17.056;2022-12-13T12:47:33;19.20;;;8.20;;
54368;SDS011;40266;52.434;17.056;2022-12-13T12:50:52;19.60;;;7.80;;
54368;SDS011;40266;52.434;17.056;2022-12-13T12:53:49;18.80;;;7.90;;
54368;SDS011;40266;52.434;17.056;2022-12-13T13:05:46;18.90;;;8.00;;
54368;SDS011;40266;52.434;17.056;2022-12-13T13:08:36;20.80;;;7.70;;
54368;SDS011;40266;52.434;17.056;2022-12-13T13:11:38;22.10;;;9.60;;
54368;SDS011;40266;52.434;17.056;2022-12-13T13:14:35;18.20;;;7.50;;
54368;SDS011;40266;52.434;17.056;2022-12-13T13:20:22;20.50;;;8.70;;
54368;SDS011;40266;52.434;17.056;2022-12-13T13:23:13;23.40;;;10.70;;
54368;SDS011;40266;52.434;17.056;2022-12-13T13:26:27;20.50;;;8.70;;
54368;SDS011;40266;52.434;17.056;2022-12-13T13:34:53;19.40;;;8.80;;
54368;SDS011;40266;52.434;17.056;2022-12-13T13:37:46;20.50;;;8.00;;
54368;SDS011;40266;52.434;17.056;2022-12-13T13:40:31;20.70;;;8.70;;
54368;SDS011;40266;52.434;17.056;2022-12-13T13:43:29;22.60;;;8.90;;
54368;SDS011;40266;52.434;17.056;2022-12-13T13:46:14;18.10;;;8.30;;
54368;SDS011;40266;52.434;17.056;2022-12-13T13:48:59;18.20;;;7.80;;
54368;SDS011;40266;52.434;17.056;2022-12-13T13:51:56;30.50;;;13.50;;
54368;SDS011;40266;52.434;17.056;2022-12-13T13:55:16;36.50;;;20.20;;
54368;SDS011;40266;52.434;17.056;2022-12-13T13:58:08;30.70;;;18.50;;
54368;SDS011;40266;52.434;17.056;2022-12-13T14:10:49;24.80;;;11.10;;
54368;SDS011;40266;52.434;17.056;2022-12-13T14:17:10;30.50;;;14.10;;
54368;SDS011;40266;52.434;17.056;2022-12-13T14:29:23;30.50;;;16.70;;
54368;SDS011;40266;52.434;17.056;2022-12-13T14:35:22;44.20;;;23.80;;
54368;SDS011;40266;52.434;17.056;2022-12-13T14:38:19;35.50;;;18.00;;
54368;SDS011;40266;52.434;17.056;2022-12-13T14:41:17;30.20;;;16.00;;
54368;SDS011;40266;52.434;17.056;2022-12-13T14:44:14;25.30;;;12.60;;
54368;SDS011;40266;52.434;17.056;2022-12-13T14:47:11;25.40;;;13.80;;
54368;SDS011;40266;52.434;17.056;2022-12-13T14:49:56;25.40;;;13.90;;
54368;SDS011;40266;52.434;17.056;2022-12-13T14:52:40;33.50;;;14.00;;
54368;SDS011;40266;52.434;17.056;2022-12-13T14:55:29;25.90;;;12.60;;
54368;SDS011;40266;52.434;17.056;2022-12-13T14:58:16;27.20;;;12.10;;
54368;SDS011;40266;52.434;17.056;2022-12-13T15:01:02;28.80;;;14.30;;
54368;SDS011;40266;52.434;17.056;2022-12-13T15:03:47;24.80;;;12.40;;
54368;SDS011;40266;52.434;17.056;2022-12-13T15:06:29;24.20;;;10.00;;
54368;SDS011;40266;52.434;17.056;2022-12-13T15:11:56;21.70;;;9.40;;
54368;SDS011;40266;52.434;17.056;2022-12-13T15:15:01;20.40;;;9.10;;
54368;SDS011;40266;52.434;17.056;2022-12-13T15:17:48;18.90;;;8.00;;
54368;SDS011;40266;52.434;17.056;2022-12-13T15:20:46;34.10;;;12.10;;
54368;SDS011;40266;52.434;17.056;2022-12-13T15:23:35;24.40;;;12.40;;
54368;SDS011;40266;52.434;17.056;2022-12-13T15:26:35;23.00;;;9.10;;
54368;SDS011;40266;52.434;17.056;2022-12-13T15:29:19;23.90;;;9.10;;
54368;SDS011;40266;52.434;17.056;2022-12-13T15:32:04;26.50;;;10.90;;
54368;SDS011;40266;52.434;17.056;2022-12-13T15:34:53;19.70;;;8.60;;
54368;SDS011;40266;52.434;17.056;2022-12-13T15:37:37;20.50;;;8.70;;
54368;SDS011;40266;52.434;17.056;2022-12-13T15:40:21;26.30;;;10.50;;
54368;SDS011;40266;52.434;17.056;2022-12-13T15:43:04;26.50;;;11.30;;
54368;SDS011;40266;52.434;17.056;2022-12-13T15:45:48;26.30;;;10.20;;
54368;SDS011;40266;52.434;17.056;2022-12-13T15:48:34;30.60;;;11.70;;
54368;SDS011;40266;52.434;17.056;2022-12-13T15:51:29;27.20;;;9.60;;
54368;SDS011;40266;52.434;17.056;2022-12-13T16:00:05;29.70;;;13.80;;
54368;SDS011;40266;52.434;17.056;2022-12-13T16:05:57;35.00;;;12.90;;
54368;SDS011;40266;52.434;17.056;2022-12-13T16:17:23;23.00;;;9.80;;
54368;SDS011;40266;52.434;17.056;2022-12-13T16:20:10;20.40;;;8.70;;
54368;SDS011;40266;52.434;17.056;2022-12-13T16:22:56;20.70;;;9.40;;
54368;SDS011;40266;52.434;17.056;2022-12-13T16:25:41;31.80;;;12.10;;
54368;SDS011;40266;52.434;17.056;2022-12-13T16:34:03;24.20;;;11.60;;
54368;SDS011;40266;52.434;17.056;2022-12-13T16:36:47;27.50;;;12.70;;
54368;SDS011;40266;52.434;17.056;2022-12-13T16:42:12;22.80;;;10.50;;
54368;SDS011;40266;52.434;17.056;2022-12-13T16:44:55;25.30;;;11.40;;
54368;SDS011;40266;52.434;17.056;2022-12-13T16:50:44;26.10;;;12.70;;
54368;SDS011;40266;52.434;17.056;2022-12-13T16:53:39;30.80;;;13.80;;
54368;SDS011;40266;52.434;17.056;2022-12-13T16:56:22;32.80;;;13.00;;
54368;SDS011;40266;52.434;17.056;2022-12-13T17:01:50;28.00;;;14.30;;
54368;SDS011;40266;52.434;17.056;2022-12-13T17:04:35;30.40;;;13.70;;
54368;SDS011;40266;52.434;17.056;2022-12-13T17:07:21;35.00;;;14.10;;
54368;SDS011;40266;52.434;17.056;2022-12-13T17:10:04;33.60;;;14.80;;
54368;SDS011;40266;52.434;17.056;2022-12-13T17:12:48;35.30;;;15.10;;
54368;SDS011;40266;52.434;17.056;2022-12-13T17:15:31;35.40;;;13.80;;
54368;SDS011;40266;52.434;17.056;2022-12-13T17:20:57;30.50;;;13.40;;
54368;SDS011;40266;52.434;17.056;2022-12-13T17:23:41;30.40;;;13.60;;
54368;SDS011;40266;52.434;17.056;2022-12-13T17:26:27;38.40;;;13.60;;
54368;SDS011;40266;52.434;17.056;2022-12-13T17:29:10;26.60;;;11.00;;
54368;SDS011;40266;52.434;17.056;2022-12-13T17:31:59;34.00;;;12.60;;
54368;SDS011;40266;52.434;17.056;2022-12-13T17:34:42;33.80;;;12.10;;
54368;SDS011;40266;52.434;17.056;2022-12-13T17:40:08;30.60;;;11.90;;
54368;SDS011;40266;52.434;17.056;2022-12-13T17:42:52;31.70;;;12.70;;
54368;SDS011;40266;52.434;17.056;2022-12-13T17:48:20;29.40;;;11.40;;
54368;SDS011;40266;52.434;17.056;2022-12-13T17:51:04;28.60;;;11.80;;
54368;SDS011;40266;52.434;17.056;2022-12-13T17:53:48;29.40;;;12.80;;
54368;SDS011;40266;52.434;17.056;2022-12-13T17:56:31;27.90;;;11.50;;
54368;SDS011;40266;52.434;17.056;2022-12-13T17:59:15;28.30;;;12.70;;
54368;SDS011;40266;52.434;17.056;2022-12-13T18:01:58;31.50;;;12.70;;
54368;SDS011;40266;52.434;17.056;2022-12-13T18:07:24;28.70;;;11.80;;
54368;SDS011;40266;52.434;17.056;2022-12-13T18:10:07;26.20;;;11.00;;
54368;SDS011;40266;52.434;17.056;2022-12-13T18:12:51;31.80;;;11.70;;
54368;SDS011;40266;52.434;17.056;2022-12-13T18:18:16;27.40;;;11.40;;
54368;SDS011;40266;52.434;17.056;2022-12-13T18:21:02;26.80;;;10.40;;
54368;SDS011;40266;52.434;17.056;2022-12-13T18:23:50;26.60;;;10.80;;
54368;SDS011;40266;52.434;17.056;2022-12-13T18:26:37;28.00;;;11.10;;
54368;SDS011;40266;52.434;17.056;2022-12-13T18:32:04;28.40;;;12.20;;
54368;SDS011;40266;52.434;17.056;2022-12-13T18:34:46;28.20;;;11.80;;
54368;SDS011;40266;52.434;17.056;2022-12-13T18:37:36;22.90;;;9.70;;
54368;SDS011;40266;52.434;17.056;2022-12-13T18:43:02;30.60;;;11.80;;
54368;SDS011;40266;52.434;17.056;2022-12-13T18:45:45;30.50;;;11.70;;
54368;SDS011;40266;52.434;17.056;2022-12-13T18:51:12;31.00;;;11.00;;
54368;SDS011;40266;52.434;17.056;2022-12-13T18:59:21;32.40;;;12.30;;
54368;SDS011;40266;52.434;17.056;2022-12-13T19:04:46;38.80;;;16.90;;
54368;SDS011;40266;52.434;17.056;2022-12-13T19:07:40;44.30;;;17.20;;
54368;SDS011;40266;52.434;17.056;2022-12-13T19:10:27;39.30;;;19.00;;
54368;SDS011;40266;52.434;17.056;2022-12-13T19:13:10;41.20;;;17.90;;
54368;SDS011;40266;52.434;17.056;2022-12-13T19:15:55;44.50;;;20.50;;
54368;SDS011;40266;52.434;17.056;2022-12-13T19:18:39;48.70;;;20.40;;
54368;SDS011;40266;52.434;17.056;2022-12-13T19:21:23;52.70;;;23.90;;
54368;SDS011;40266;52.434;17.056;2022-12-13T19:24:07;48.50;;;21.20;;
54368;SDS011;40266;52.434;17.056;2022-12-13T19:26:53;46.30;;;19.40;;
54368;SDS011;40266;52.434;17.056;2022-12-13T19:29:36;46.90;;;18.80;;
54368;SDS011;40266;52.434;17.056;2022-12-13T19:35:03;47.20;;;17.60;;
54368;SDS011;40266;52.434;17.056;2022-12-13T19:37:46;46.90;;;20.80;;
54368;SDS011;40266;52.434;17.056;2022-12-13T19:43:11;41.20;;;17.70;;
54368;SDS011;40266;52.434;17.056;2022-12-13T19:45:54;48.10;;;20.30;;
54368;SDS011;40266;52.434;17.056;2022-12-13T19:48:37;48.00;;;18.20;;
54368;SDS011;40266;52.434;17.056;2022-12-13T19:51:20;47.60;;;18.50;;
54368;SDS011;40266;52.434;17.056;2022-12-13T19:54:03;42.50;;;19.50;;
54368;SDS011;40266;52.434;17.056;2022-12-13T19:56:46;46.00;;;19.50;;
54368;SDS011;40266;52.434;17.056;2022-12-13T20:02:14;43.80;;;18.20;;
54368;SDS011;40266;52.434;17.056;2022-12-13T20:04:57;45.60;;;19.00;;
54368;SDS011;40266;52.434;17.056;2022-12-13T20:10:23;49.20;;;21.30;;
54368;SDS011;40266;52.434;17.056;2022-12-13T20:13:07;49.50;;;20.40;;
54368;SDS011;40266;52.434;17.056;2022-12-13T20:18:32;50.80;;;21.60;;
54368;SDS011;40266;52.434;17.056;2022-12-13T20:21:16;53.80;;;22.30;;
54368;SDS011;40266;52.434;17.056;2022-12-13T20:26:42;53.10;;;24.10;;
54368;SDS011;40266;52.434;17.056;2022-12-13T20:29:28;49.70;;;21.30;;
54368;SDS011;40266;52.434;17.056;2022-12-13T20:32:11;55.10;;;21.30;;
54368;SDS011;40266;52.434;17.056;2022-12-13T20:34:54;44.90;;;20.60;;